createdAt,value
2018-06-04T00:01:58.117Z,14.50
2018-06-04T00:04:27.148Z,14.70
2018-06-04T00:06:56.758Z,14.43
2018-06-04T00:09:25.794Z,13.60
2018-06-04T00:11:54.836Z,13.93
2018-06-04T00:14:24.243Z,14.57
2018-06-04T00:16:53.260Z,16.03
2018-06-04T00:19:22.415Z,14.63
2018-06-04T00:21:51.427Z,13.73
2018-06-04T00:24:20.434Z,14.93
2018-06-04T00:26:49.601Z,14.27
2018-06-04T00:29:18.736Z,13.93
2018-06-04T00:31:47.708Z,14.33
2018-06-04T00:34:16.887Z,14.63
2018-06-04T00:36:46.466Z,13.80
2018-06-04T00:39:15.416Z,13.03
2018-06-04T00:41:44.443Z,13.83
2018-06-04T00:44:13.747Z,13.80
2018-06-04T00:46:42.841Z,14.80
2018-06-04T00:49:11.832Z,13.23
2018-06-04T00:51:40.904Z,14.10
2018-06-04T00:54:10.314Z,14.23
2018-06-04T00:56:39.351Z,13.87
2018-06-04T00:59:08.755Z,13.70
2018-06-04T01:01:37.996Z,14.27
2018-06-04T01:04:07.030Z,14.97
2018-06-04T01:06:36.388Z,14.70
2018-06-04T01:09:07.775Z,14.07
2018-06-04T01:11:37.358Z,14.43
2018-06-04T01:14:06.430Z,14.37
2018-06-04T01:16:35.579Z,14.30
2018-06-04T01:19:04.935Z,13.40
2018-06-04T01:21:33.935Z,13.50
2018-06-04T01:24:03.030Z,13.37
2018-06-04T01:26:32.353Z,12.87
2018-06-04T01:29:01.441Z,13.97
2018-06-04T01:31:30.536Z,13.77
2018-06-04T01:33:59.705Z,14.63
2018-06-04T01:36:28.940Z,13.93
2018-06-04T01:38:57.968Z,14.40
2018-06-04T01:41:27.157Z,13.97
2018-06-04T01:43:56.164Z,14.90
2018-06-04T01:46:25.291Z,15.30
2018-06-04T01:48:54.471Z,14.07
2018-06-04T01:51:23.578Z,14.60
2018-06-04T01:53:52.796Z,14.80
2018-06-04T01:56:22.124Z,14.07
2018-06-04T01:58:51.175Z,14.57
2018-06-04T02:01:20.397Z,14.23
2018-06-04T02:03:48.447Z,13.23
2018-06-04T02:06:17.915Z,13.67
2018-06-04T02:08:47.027Z,13.63
2018-06-04T02:11:16.319Z,13.43
2018-06-04T02:13:45.432Z,13.40
2018-06-04T02:16:14.503Z,13.40
2018-06-04T02:18:44.177Z,13.17
2018-06-04T02:21:13.260Z,11.73
2018-06-04T02:23:42.279Z,12.83
2018-06-04T02:26:11.576Z,12.43
2018-06-04T02:28:40.691Z,11.70
2018-06-04T02:32:12.507Z,11.50
2018-06-04T02:34:41.432Z,11.83
2018-06-04T02:37:10.404Z,11.43
2018-06-04T02:39:40.197Z,12.97
2018-06-04T02:42:09.292Z,12.20
2018-06-04T02:44:38.385Z,12.03
2018-06-04T02:47:07.641Z,11.80
2018-06-04T02:49:36.735Z,11.70
2018-06-04T02:52:06.019Z,11.90
2018-06-04T02:54:35.163Z,11.20
2018-06-04T02:57:04.326Z,10.73
2018-06-04T02:59:33.584Z,10.70
2018-06-04T03:02:02.511Z,11.03
2018-06-04T03:04:31.596Z,10.90
2018-06-04T03:07:00.573Z,11.03
2018-06-04T03:09:29.939Z,10.40
2018-06-04T03:11:58.910Z,9.57
2018-06-04T03:14:27.872Z,10.37
2018-06-04T03:16:56.963Z,10.00
2018-06-04T03:19:25.951Z,9.03
2018-06-04T03:21:55.070Z,9.57
2018-06-04T03:24:24.699Z,9.47
2018-06-04T03:26:53.609Z,8.90
2018-06-04T03:29:22.388Z,9.30
2018-06-04T03:31:51.454Z,9.13
2018-06-04T03:34:20.444Z,9.07
2018-06-04T03:36:49.515Z,9.20
2018-06-04T03:39:18.521Z,8.67
2018-06-04T03:41:47.526Z,8.70
2018-06-04T03:44:16.532Z,9.33
2018-06-04T03:46:45.704Z,9.20
2018-06-04T03:49:14.666Z,9.73
2018-06-04T03:51:43.811Z,9.00
2018-06-04T03:54:13.402Z,9.00
2018-06-04T03:56:42.291Z,9.25
2018-06-04T04:05:56.128Z,8.73
2018-06-04T04:08:25.291Z,8.70
2018-06-04T04:10:54.184Z,8.90
2018-06-04T04:13:23.740Z,9.10
2018-06-04T04:15:52.658Z,8.90
2018-06-04T04:18:21.545Z,8.98
2018-06-04T04:20:50.708Z,8.53
2018-06-04T04:23:19.703Z,8.08
2018-06-04T04:25:48.632Z,8.93
2018-06-04T04:28:17.837Z,8.40
2018-06-04T04:30:46.776Z,7.85
2018-06-04T04:33:15.789Z,7.95
2018-06-04T04:35:45.176Z,8.30
2018-06-04T04:38:14.099Z,8.53
2018-06-04T04:40:43.249Z,8.28
2018-06-04T04:43:12.314Z,7.95
2018-06-04T04:45:41.516Z,7.28
2018-06-04T04:48:10.480Z,7.80
2018-06-04T04:50:39.701Z,7.90
2018-06-04T04:53:08.691Z,8.50
2018-06-04T04:55:37.774Z,7.40
2018-06-04T04:58:07.408Z,7.33
2018-06-04T05:00:36.448Z,7.33
2018-06-04T05:03:05.543Z,7.17
2018-06-04T05:05:34.819Z,6.75
2018-06-04T05:08:03.911Z,6.75
2018-06-04T05:10:32.929Z,6.12
2018-06-04T05:13:02.121Z,7.62
2018-06-04T05:15:31.119Z,6.45
2018-06-04T05:18:00.108Z,6.67
2018-06-04T05:20:29.650Z,7.08
2018-06-04T05:22:58.628Z,7.12
2018-06-04T05:25:27.676Z,6.65
2018-06-04T05:27:56.859Z,7.10
2018-06-04T05:30:25.819Z,7.25
2018-06-04T05:32:54.716Z,6.58
2018-06-04T05:35:24.113Z,6.75
2018-06-04T05:37:53.410Z,6.92
2018-06-04T05:40:22.499Z,6.55
2018-06-04T05:42:51.901Z,6.72
2018-06-04T05:45:20.843Z,6.65
2018-06-04T05:47:49.956Z,7.03
2018-06-04T05:50:19.603Z,7.05
2018-06-04T05:52:48.575Z,6.80
2018-06-04T05:55:17.771Z,7.00
2018-06-04T05:57:46.971Z,6.47
2018-06-04T06:00:16.014Z,6.80
2018-06-04T06:02:45.072Z,7.10
2018-06-04T06:05:14.152Z,6.62
2018-06-04T06:07:43.120Z,6.60
2018-06-04T06:10:12.180Z,6.40
2018-06-04T06:12:41.630Z,6.17
2018-06-04T06:15:10.457Z,5.92
2018-06-04T06:17:39.667Z,6.30
2018-06-04T06:20:08.648Z,6.12
2018-06-04T06:22:37.581Z,6.67
2018-06-04T06:25:06.609Z,6.08
2018-06-04T06:27:35.731Z,6.67
2018-06-04T06:30:05.074Z,7.35
2018-06-04T06:32:33.949Z,6.92
2018-06-04T06:35:03.444Z,6.87
2018-06-04T06:37:32.525Z,6.87
2018-06-04T06:40:01.649Z,6.70
2018-06-04T06:42:30.956Z,6.20
2018-06-04T06:45:00.044Z,6.58
2018-06-04T06:47:29.056Z,6.12
2018-06-04T06:49:58.177Z,7.05
2018-06-04T06:52:27.219Z,6.70
2018-06-04T06:54:56.269Z,6.50
2018-06-04T06:57:25.324Z,6.20
2018-06-04T06:59:55.293Z,6.78
2018-06-04T07:02:24.467Z,7.33
2018-06-04T07:04:53.971Z,7.25
2018-06-04T07:07:22.965Z,7.17
2018-06-04T07:09:51.995Z,6.47
2018-06-04T07:12:21.490Z,6.47
2018-06-04T07:14:50.370Z,6.12
2018-06-04T07:17:19.347Z,6.35
2018-06-04T07:19:48.793Z,5.62
2018-06-04T07:22:17.767Z,5.90
2018-06-04T07:24:46.913Z,5.67
2018-06-04T07:27:16.457Z,5.28
2018-06-04T07:29:45.412Z,5.40
2018-06-04T07:32:14.604Z,5.70
2018-06-04T07:34:43.648Z,6.15
2018-06-04T07:37:12.641Z,5.05
2018-06-04T07:39:41.561Z,4.92
2018-06-04T07:42:10.595Z,4.83
2018-06-04T07:44:39.593Z,5.60
2018-06-04T07:47:08.696Z,4.97
2018-06-04T07:49:37.861Z,5.85
2018-06-04T07:52:06.859Z,5.22
2018-06-04T07:54:35.950Z,5.03
2018-06-04T07:57:05.515Z,4.85
2018-06-04T07:59:34.669Z,4.97
2018-06-04T08:02:03.472Z,4.70
2018-06-04T08:04:32.565Z,4.53
2018-06-04T08:07:01.588Z,4.65
2018-06-04T08:09:30.693Z,5.17
2018-06-04T08:11:59.767Z,4.97
2018-06-04T08:14:28.784Z,4.33
2018-06-04T08:16:57.681Z,4.72
2018-06-04T08:19:27.002Z,4.42
2018-06-04T08:21:55.935Z,4.67
2018-06-04T08:24:24.830Z,4.20
2018-06-04T08:26:54.148Z,4.97
2018-06-04T08:29:23.221Z,4.87
2018-06-04T08:31:52.389Z,4.30
2018-06-04T08:34:21.490Z,4.55
2018-06-04T08:36:50.515Z,4.80
2018-06-04T08:39:19.677Z,4.37
2018-06-04T08:42:52.170Z,4.95
2018-06-04T08:45:21.309Z,4.47
2018-06-04T08:47:50.397Z,3.80
2018-06-04T08:50:19.863Z,3.92
2018-06-04T08:52:48.984Z,3.65
2018-06-04T08:55:17.960Z,3.62
2018-06-04T08:57:47.519Z,4.50
2018-06-04T09:00:16.363Z,3.80
2018-06-04T09:02:45.270Z,3.72
2018-06-04T09:05:14.619Z,3.75
2018-06-04T09:07:43.754Z,3.83
2018-06-04T09:10:12.848Z,4.20
2018-06-04T09:12:42.106Z,3.75
2018-06-04T09:15:11.145Z,4.17
2018-06-04T09:17:40.075Z,4.00
2018-06-04T09:20:09.530Z,3.70
2018-06-04T09:22:38.680Z,3.60
2018-06-04T09:25:07.871Z,3.42
2018-06-04T09:27:36.954Z,3.92
2018-06-04T09:30:05.959Z,3.40
2018-06-04T09:32:35.028Z,3.87
2018-06-04T09:35:04.095Z,3.60
2018-06-04T09:37:32.980Z,3.40
2018-06-04T09:40:02.160Z,3.87
2018-06-04T09:42:31.339Z,4.30
2018-06-04T09:45:00.309Z,3.65
2018-06-04T09:47:29.486Z,4.03
2018-06-04T09:49:58.525Z,3.87
2018-06-04T09:52:27.636Z,3.77
2018-06-04T09:54:56.713Z,3.58
2018-06-04T09:57:25.976Z,4.00
2018-06-04T09:59:55.094Z,3.83
2018-06-04T10:02:24.113Z,3.55
2018-06-04T10:04:53.131Z,3.58
2018-06-04T10:07:22.089Z,3.77
2018-06-04T10:09:51.940Z,3.30
2018-06-04T10:12:21.039Z,3.67
2018-06-04T10:14:49.994Z,3.87
2018-06-04T10:17:19.042Z,3.67
2018-06-04T10:19:48.461Z,3.17
2018-06-04T10:22:17.549Z,3.35
2018-06-04T10:24:46.647Z,3.40
2018-06-04T10:27:16.113Z,3.20
2018-06-04T10:29:45.410Z,2.95
2018-06-04T10:32:14.545Z,3.85
2018-06-04T10:34:43.951Z,3.58
2018-06-04T10:37:12.925Z,3.62
2018-06-04T10:39:42.047Z,3.45
2018-06-04T10:42:11.694Z,3.33
2018-06-04T10:44:40.876Z,3.25
2018-06-04T10:47:09.885Z,2.92
2018-06-04T10:49:39.271Z,3.10
2018-06-04T10:52:08.324Z,3.83
2018-06-04T10:54:37.391Z,3.17
2018-06-04T10:57:06.423Z,3.00
2018-06-04T10:59:36.240Z,3.25
2018-06-04T11:02:05.573Z,3.70
2018-06-04T11:04:34.567Z,3.25
2018-06-04T11:07:04.148Z,3.27
2018-06-04T11:09:33.106Z,2.80
2018-06-04T11:12:02.405Z,3.20
2018-06-04T11:14:31.568Z,2.95
2018-06-04T11:17:00.652Z,2.60
2018-06-04T11:19:29.784Z,2.83
2018-06-04T11:21:58.809Z,3.10
2018-06-04T11:24:27.709Z,2.67
2018-06-04T11:26:57.395Z,3.02
2018-06-04T11:29:26.300Z,3.15
2018-06-04T11:31:55.401Z,3.05
2018-06-04T11:34:24.544Z,2.95
2018-06-04T11:36:53.826Z,3.47
2018-06-04T11:39:22.829Z,3.12
2018-06-04T11:41:52.279Z,3.60
2018-06-04T11:44:21.291Z,3.08
2018-06-04T11:46:50.335Z,3.40
2018-06-04T11:49:19.171Z,2.70
2018-06-04T11:51:48.158Z,2.55
2018-06-04T11:54:17.439Z,3.17
2018-06-04T11:56:46.813Z,3.30
2018-06-04T11:59:15.927Z,3.00
2018-06-04T12:01:45.053Z,2.90
2018-06-04T12:04:14.628Z,2.90
2018-06-04T12:06:43.844Z,2.40
2018-06-04T12:09:12.859Z,2.70
2018-06-04T12:11:42.499Z,2.67
2018-06-04T12:14:11.624Z,3.17
2018-06-04T12:16:40.661Z,2.72
2018-06-04T12:19:10.169Z,2.80
2018-06-04T12:21:39.223Z,2.80
2018-06-04T12:24:08.203Z,2.67
2018-06-04T12:26:37.620Z,3.02
2018-06-04T12:29:06.562Z,3.12
2018-06-04T12:31:35.518Z,2.77
2018-06-04T12:34:04.910Z,3.12
2018-06-04T12:36:33.763Z,2.90
2018-06-04T12:39:02.862Z,3.12
2018-06-04T12:41:32.062Z,3.17
2018-06-04T12:44:01.283Z,3.90
2018-06-04T12:46:30.333Z,3.35
2018-06-04T12:48:59.521Z,3.22
2018-06-04T12:51:28.514Z,2.52
2018-06-04T12:53:57.684Z,2.83
2018-06-04T12:56:26.987Z,3.08
2018-06-04T12:58:55.953Z,2.90
2018-06-04T13:01:25.126Z,2.30
2018-06-04T13:03:54.645Z,1.82
2018-06-04T13:06:23.644Z,1.82
2018-06-04T13:08:52.709Z,1.77
2018-06-04T13:11:21.830Z,1.90
2018-06-04T13:13:50.944Z,1.82
2018-06-04T13:16:20.079Z,2.08
2018-06-04T13:18:49.621Z,1.90
2018-06-04T13:21:18.574Z,1.60
2018-06-04T13:23:47.654Z,1.62
2018-06-04T13:26:16.786Z,1.45
2018-06-04T13:28:45.922Z,1.87
2018-06-04T13:31:15.077Z,1.92
2018-06-04T13:33:44.422Z,1.60
2018-06-04T13:36:13.492Z,2.17
2018-06-04T13:38:42.539Z,1.90
2018-06-04T13:41:11.482Z,2.40
2018-06-04T13:43:40.387Z,1.57
2018-06-04T13:46:09.527Z,1.95
2018-06-04T13:48:39.140Z,2.00
2018-06-04T13:51:08.148Z,2.02
2018-06-04T13:53:37.197Z,1.80
2018-06-04T13:56:06.655Z,2.20
2018-06-04T13:58:35.786Z,2.08
2018-06-04T14:01:04.845Z,2.35
2018-06-04T14:03:34.515Z,4.33
2018-06-04T14:06:03.547Z,5.45
2018-06-04T14:08:32.578Z,8.13
2018-06-04T14:11:02.206Z,3.87
2018-06-04T14:13:31.182Z,5.12
2018-06-04T14:16:00.214Z,4.85
2018-06-04T14:18:29.692Z,4.20
2018-06-04T14:20:58.714Z,5.67
2018-06-04T14:23:27.734Z,3.37
2018-06-04T14:25:57.160Z,3.30
2018-06-04T14:28:26.135Z,3.83
2018-06-04T14:30:55.216Z,3.50
2018-06-04T14:33:24.385Z,3.80
2018-06-04T14:35:53.457Z,4.30
2018-06-04T14:38:23.417Z,3.25
2018-06-04T14:40:52.832Z,3.70
2018-06-04T14:43:21.902Z,3.45
2018-06-04T14:45:50.965Z,3.12
2018-06-04T14:48:20.184Z,3.10
2018-06-04T14:50:49.292Z,3.17
2018-06-04T14:53:18.187Z,3.70
2018-06-04T14:55:47.213Z,3.22
2018-06-04T14:58:16.215Z,3.20
2018-06-04T15:00:45.183Z,3.40
2018-06-04T15:03:14.599Z,3.15
2018-06-04T15:05:43.608Z,3.95
2018-06-04T15:08:12.724Z,3.17
2018-06-04T15:10:42.058Z,2.72
2018-06-04T15:13:11.076Z,3.12
2018-06-04T15:15:40.138Z,3.30
2018-06-04T15:18:09.775Z,3.42
2018-06-04T15:20:38.762Z,3.22
2018-06-04T15:23:07.889Z,3.00
2018-06-04T15:25:37.019Z,2.90
2018-06-04T15:28:05.970Z,3.58
2018-06-04T15:30:35.064Z,3.80
2018-06-04T15:33:04.196Z,3.17
2018-06-04T15:35:33.290Z,3.55
2018-06-04T15:38:02.343Z,3.55
2018-06-04T15:40:31.464Z,3.33
2018-06-04T15:43:00.572Z,4.40
2018-06-04T15:45:29.723Z,3.80
2018-06-04T15:47:58.863Z,3.85
2018-06-04T15:50:27.820Z,3.65
2018-06-04T15:52:57.035Z,3.72
2018-06-04T15:55:26.153Z,3.47
2018-06-04T15:57:55.060Z,3.50
2018-06-04T16:00:24.003Z,3.20
2018-06-04T16:02:53.645Z,3.27
2018-06-04T16:05:22.600Z,3.37
2018-06-04T16:07:51.868Z,3.30
2018-06-04T16:10:21.024Z,3.20
2018-06-04T16:12:50.124Z,3.33
2018-06-04T16:15:19.132Z,3.37
2018-06-04T16:17:48.421Z,3.55
2018-06-04T16:20:17.380Z,3.45
2018-06-04T16:22:46.417Z,3.60
2018-06-04T16:25:15.888Z,4.00
2018-06-04T16:27:44.937Z,3.65
2018-06-04T16:36:59.344Z,3.30
2018-06-04T16:39:28.337Z,4.10
2018-06-04T16:41:57.406Z,4.22
2018-06-04T16:44:26.552Z,3.92
2018-06-04T16:46:55.528Z,3.98
2018-06-04T16:49:24.603Z,4.03
2018-06-04T16:51:53.923Z,4.37
2018-06-04T16:54:22.912Z,3.58
2018-06-04T16:56:51.862Z,5.45
2018-06-04T16:59:20.856Z,4.25
2018-06-04T17:01:49.977Z,4.10
2018-06-04T17:04:19.015Z,4.47
2018-06-04T17:06:48.127Z,4.40
2018-06-04T17:09:17.181Z,3.85
2018-06-04T17:11:46.043Z,5.10
2018-06-04T17:14:15.316Z,4.33
2018-06-04T17:16:44.267Z,4.67
2018-06-04T17:19:13.199Z,5.22
2018-06-04T17:21:42.307Z,4.78
2018-06-04T17:24:11.553Z,5.00
2018-06-04T17:26:40.727Z,4.03
2018-06-04T17:29:09.844Z,4.00
2018-06-04T17:31:39.039Z,3.60
2018-06-04T17:34:08.157Z,3.50
2018-06-04T17:36:37.790Z,3.30
2018-06-04T17:39:08.549Z,4.67
2018-06-04T17:41:38.012Z,4.28
2018-06-04T17:44:06.912Z,4.47
2018-06-04T17:46:35.902Z,5.80
2018-06-04T17:49:05.411Z,6.00
2018-06-04T17:51:34.459Z,6.28
2018-06-04T17:54:03.676Z,5.70
2018-06-04T17:56:32.998Z,6.12
2018-06-04T17:59:01.985Z,5.53
2018-06-04T18:01:31.124Z,5.72
2018-06-04T18:04:00.302Z,5.33
2018-06-04T18:06:29.322Z,5.03
2018-06-04T18:08:58.449Z,6.05
2018-06-04T18:11:27.739Z,5.60
2018-06-04T18:13:56.615Z,5.85
2018-06-04T18:16:25.726Z,4.87
2018-06-04T18:18:55.035Z,5.25
2018-06-04T18:21:23.947Z,6.50
2018-06-04T18:23:52.834Z,5.28
2018-06-04T18:26:22.092Z,6.08
2018-06-04T18:28:51.135Z,5.70
2018-06-04T18:31:20.202Z,6.12
2018-06-04T18:33:49.615Z,5.60
2018-06-04T18:36:18.684Z,5.65
2018-06-04T18:38:47.773Z,5.42
2018-06-04T18:41:16.782Z,6.03
2018-06-04T18:43:45.806Z,5.28
2018-06-04T18:46:14.900Z,5.70
2018-06-04T18:48:43.995Z,5.80
2018-06-04T18:51:13.126Z,5.42
2018-06-04T18:53:42.135Z,5.72
2018-06-04T18:56:11.617Z,5.60
2018-06-04T18:58:40.632Z,5.95
2018-06-04T19:01:09.639Z,5.50
2018-06-04T19:03:39.128Z,4.67
2018-06-04T19:06:08.090Z,4.70
2018-06-04T19:08:37.141Z,4.60
2018-06-04T19:11:06.203Z,4.20
2018-06-04T19:13:35.200Z,3.92
2018-06-04T19:16:04.276Z,3.72
2018-06-04T19:18:33.436Z,4.33
2018-06-04T19:21:02.556Z,3.75
2018-06-04T19:23:31.540Z,3.27
2018-06-04T19:26:00.601Z,3.25
2018-06-04T19:28:29.663Z,3.83
2018-06-04T19:30:58.560Z,3.77
2018-06-04T19:33:28.430Z,4.22
2018-06-04T19:35:57.360Z,4.33
2018-06-04T19:38:26.252Z,5.17
2018-06-04T19:40:56.124Z,4.90
2018-06-04T19:43:25.071Z,5.00
2018-06-04T19:45:54.198Z,5.17
2018-06-04T19:48:23.488Z,5.08
2018-06-04T19:50:52.467Z,4.90
2018-06-04T19:53:21.462Z,4.72
2018-06-04T19:55:50.641Z,4.72
2018-06-04T19:58:19.687Z,4.53
2018-06-04T20:00:48.712Z,5.67
2018-06-04T20:03:17.879Z,5.17
2018-06-04T20:05:46.872Z,3.70
2018-06-04T20:08:15.768Z,3.90
2018-06-04T20:10:44.778Z,3.90
2018-06-04T20:13:13.739Z,5.20
2018-06-04T20:15:42.717Z,4.50
2018-06-04T20:18:11.718Z,4.87
2018-06-04T20:20:40.684Z,4.35
2018-06-04T20:23:09.782Z,4.05
2018-06-04T20:25:38.954Z,4.00
2018-06-04T20:28:07.889Z,4.45
2018-06-04T20:30:36.732Z,4.42
2018-06-04T20:33:05.726Z,4.20
2018-06-04T20:35:34.850Z,4.47
2018-06-04T20:38:03.904Z,4.30
2018-06-04T20:40:34.472Z,4.62
2018-06-04T20:43:03.590Z,4.25
2018-06-04T20:45:32.559Z,4.67
2018-06-04T20:48:01.815Z,4.40
2018-06-04T20:50:30.874Z,4.00
2018-06-04T20:52:59.885Z,4.60
2018-06-04T20:55:29.051Z,4.10
2018-06-04T20:57:58.002Z,4.03
2018-06-04T21:00:26.838Z,4.45
2018-06-04T21:02:56.391Z,4.12
2018-06-04T21:05:25.318Z,4.50
2018-06-04T21:07:54.407Z,5.27
2018-06-04T21:10:23.611Z,5.27
2018-06-04T21:12:52.707Z,5.37
2018-06-04T21:15:21.809Z,5.20
2018-06-04T21:17:50.965Z,5.43
2018-06-04T21:20:19.967Z,5.63
2018-06-04T21:22:48.972Z,5.57
2018-06-04T21:25:18.310Z,5.27
2018-06-04T21:27:47.355Z,5.40
2018-06-04T21:30:16.459Z,5.20
2018-06-04T21:32:45.671Z,5.27
2018-06-04T21:35:14.745Z,5.07
2018-06-04T21:38:46.348Z,5.37
2018-06-04T21:41:15.406Z,5.20
2018-06-04T21:43:44.373Z,5.20
2018-06-04T21:46:13.498Z,5.53
2018-06-04T21:48:49.124Z,5.70
2018-06-04T21:51:18.594Z,5.33
2018-06-04T21:53:47.560Z,6.10
2018-06-04T21:56:16.578Z,6.50
2018-06-04T21:58:45.536Z,6.10
2018-06-04T22:01:14.733Z,6.33
2018-06-04T22:03:43.748Z,6.47
2018-06-04T22:06:13.321Z,6.57
2018-06-04T22:08:42.701Z,6.27
2018-06-04T22:11:11.884Z,7.00
2018-06-04T22:13:41.624Z,6.87
2018-06-04T22:16:10.634Z,7.03
2018-06-04T22:18:39.605Z,7.03
2018-06-04T22:21:09.316Z,7.13
2018-06-04T22:23:38.257Z,6.63
2018-06-04T22:26:07.504Z,6.70
2018-06-04T22:28:36.812Z,6.30
2018-06-04T22:31:05.886Z,6.40
2018-06-04T22:33:34.985Z,7.10
2018-06-04T22:36:03.988Z,6.47
2018-06-04T22:38:33.133Z,6.53
2018-06-04T22:41:02.233Z,6.23
2018-06-04T22:43:31.583Z,6.53
2018-06-04T22:46:00.531Z,6.30
2018-06-04T22:48:29.611Z,6.03
2018-06-04T22:50:58.802Z,6.60
2018-06-04T22:53:28.016Z,6.70
2018-06-04T22:55:57.088Z,7.33
2018-06-04T22:58:26.160Z,7.33
2018-06-04T23:00:55.254Z,6.67
2018-06-04T23:03:24.368Z,7.30
2018-06-04T23:05:54.007Z,6.90
2018-06-04T23:08:23.028Z,6.90
2018-06-04T23:10:52.110Z,6.73
2018-06-04T23:13:21.193Z,6.73
2018-06-04T23:15:50.287Z,7.20
2018-06-04T23:18:19.384Z,6.90
2018-06-04T23:20:48.633Z,7.10
2018-06-04T23:23:17.810Z,6.37
2018-06-04T23:25:46.744Z,7.40
2018-06-04T23:28:15.849Z,7.60
2018-06-04T23:30:44.688Z,7.37
2018-06-04T23:33:13.571Z,7.57
2018-06-04T23:35:42.932Z,7.37
2018-06-04T23:38:11.982Z,6.80
2018-06-04T23:40:40.889Z,7.37
2018-06-04T23:43:10.479Z,7.80
2018-06-04T23:45:39.620Z,6.90
2018-06-04T23:48:08.663Z,7.17
2018-06-04T23:50:38.520Z,7.80
2018-06-04T23:53:07.372Z,7.63
2018-06-04T23:55:36.322Z,7.97
2018-06-04T23:58:05.979Z,8.40
